createdAt,value
2017-11-05T00:00:53.453Z,26.43
2017-11-05T00:03:20.042Z,13.00
2017-11-05T00:05:46.632Z,15.87
2017-11-05T00:08:13.214Z,16.90
2017-11-05T00:10:39.805Z,16.43
2017-11-05T00:13:06.393Z,15.73
2017-11-05T00:15:33.016Z,15.77
2017-11-05T00:17:59.621Z,17.07
2017-11-05T00:20:26.215Z,17.53
2017-11-05T00:22:52.799Z,18.63
2017-11-05T00:25:19.390Z,22.07
2017-11-05T00:27:45.977Z,25.27
2017-11-05T00:30:12.561Z,21.20
2017-11-05T00:32:39.193Z,18.87
2017-11-05T00:35:05.784Z,24.83
2017-11-05T00:37:32.371Z,27.03
2017-11-05T00:39:58.966Z,21.57
2017-11-05T00:42:25.553Z,22.30
2017-11-05T00:44:52.134Z,23.10
2017-11-05T00:47:18.765Z,19.00
2017-11-05T00:49:45.379Z,19.93
2017-11-05T00:52:11.977Z,21.73
2017-11-05T00:54:38.558Z,24.37
2017-11-05T00:57:05.147Z,24.23
2017-11-05T00:59:31.738Z,26.00
2017-11-05T01:01:58.323Z,21.57
2017-11-05T01:04:24.918Z,21.40
2017-11-05T01:06:51.509Z,23.30
2017-11-05T01:09:18.107Z,23.57
2017-11-05T01:11:44.699Z,26.60
2017-11-05T01:14:11.283Z,24.37
2017-11-05T01:16:37.873Z,26.70
2017-11-05T01:19:04.464Z,25.23
2017-11-05T01:21:31.159Z,21.87
2017-11-05T01:23:57.730Z,21.83
2017-11-05T01:26:24.334Z,24.03
2017-11-05T01:28:50.918Z,23.37
2017-11-05T01:31:17.497Z,22.80
2017-11-05T01:33:44.099Z,28.60
2017-11-05T01:36:10.678Z,22.13
2017-11-05T01:38:37.270Z,25.50
2017-11-05T01:41:03.853Z,25.90
2017-11-05T01:43:30.458Z,25.00
2017-11-05T01:45:57.041Z,25.03
2017-11-05T01:48:23.629Z,26.53
2017-11-05T01:50:50.222Z,24.30
2017-11-05T01:53:16.810Z,29.23
2017-11-05T01:55:43.407Z,31.70
2017-11-05T01:58:10.010Z,35.90
2017-11-05T02:00:36.625Z,36.80
2017-11-05T02:03:03.209Z,32.30
2017-11-05T02:05:29.793Z,31.17
2017-11-05T02:07:56.394Z,32.53
2017-11-05T02:10:22.976Z,22.60
2017-11-05T02:12:49.580Z,25.30
2017-11-05T02:15:16.162Z,30.00
2017-11-05T02:17:42.762Z,28.03
2017-11-05T02:20:09.345Z,31.33
2017-11-05T02:22:35.936Z,29.73
2017-11-05T02:25:02.526Z,33.10
2017-11-05T02:27:29.133Z,31.13
2017-11-05T02:29:55.733Z,33.00
2017-11-05T02:32:22.325Z,31.00
2017-11-05T02:34:48.910Z,30.10
2017-11-05T02:37:15.529Z,27.03
2017-11-05T02:39:42.114Z,33.27
2017-11-05T02:42:08.706Z,31.40
2017-11-05T02:44:35.302Z,29.53
2017-11-05T02:47:01.881Z,32.60
2017-11-05T02:49:28.500Z,31.80
2017-11-05T02:51:55.085Z,34.60
2017-11-05T02:54:21.687Z,32.20
2017-11-05T02:56:48.313Z,32.43
2017-11-05T02:59:14.894Z,30.23
2017-11-05T03:01:41.489Z,33.20
2017-11-05T03:04:08.076Z,32.73
2017-11-05T03:06:34.674Z,32.70
2017-11-05T03:09:01.262Z,39.47
2017-11-05T03:11:27.870Z,33.30
2017-11-05T03:13:54.466Z,39.63
2017-11-05T03:16:21.048Z,39.97
2017-11-05T03:18:47.636Z,46.13
2017-11-05T03:21:14.224Z,46.17
2017-11-05T03:23:40.915Z,45.93
2017-11-05T03:26:07.482Z,36.70
2017-11-05T03:28:34.082Z,45.20
2017-11-05T03:31:00.675Z,42.83
2017-11-05T03:33:27.257Z,44.40
2017-11-05T03:35:53.856Z,41.33
2017-11-05T03:38:20.437Z,42.90
2017-11-05T03:40:47.025Z,39.97
2017-11-05T03:43:13.605Z,47.30
2017-11-05T03:45:40.306Z,40.10
2017-11-05T03:48:06.884Z,38.53
2017-11-05T03:50:33.559Z,44.53
2017-11-05T03:53:00.130Z,37.63
2017-11-05T03:55:26.713Z,37.87
2017-11-05T03:57:53.313Z,36.70
2017-11-05T04:00:19.900Z,40.23
2017-11-05T04:02:46.592Z,36.90
2017-11-05T04:05:13.179Z,42.37
2017-11-05T04:07:39.818Z,47.93
2017-11-05T04:10:06.442Z,41.97
2017-11-05T04:12:33.021Z,43.87
2017-11-05T04:14:59.624Z,47.40
2017-11-05T04:17:26.214Z,47.27
2017-11-05T04:19:52.813Z,43.73
2017-11-05T04:22:19.402Z,43.90
2017-11-05T04:24:46.015Z,45.90
2017-11-05T04:27:12.664Z,44.67
2017-11-05T04:29:39.237Z,43.97
2017-11-05T04:32:05.827Z,38.37
2017-11-05T04:34:32.414Z,37.60
2017-11-05T04:36:59.018Z,41.33
2017-11-05T04:39:25.602Z,36.63
2017-11-05T04:41:52.182Z,39.23
2017-11-05T04:44:18.786Z,39.50
2017-11-05T04:46:45.369Z,40.30
2017-11-05T04:49:11.974Z,42.00
2017-11-05T04:51:38.558Z,39.00
2017-11-05T04:54:05.158Z,44.40
2017-11-05T04:56:31.746Z,45.87
2017-11-05T04:58:58.330Z,45.33
2017-11-05T05:01:24.926Z,41.97
2017-11-05T05:03:51.521Z,40.07
2017-11-05T05:06:18.110Z,45.90
2017-11-05T05:08:44.719Z,44.90
2017-11-05T05:11:11.305Z,51.23
2017-11-05T05:13:37.894Z,43.37
2017-11-05T05:16:04.478Z,39.90
2017-11-05T05:18:31.075Z,41.93
2017-11-05T05:20:57.654Z,49.43
2017-11-05T05:23:24.278Z,47.10
2017-11-05T05:25:50.862Z,30.10
2017-11-05T05:28:17.470Z,23.23
2017-11-05T05:30:44.058Z,21.93
2017-11-05T05:33:10.634Z,23.30
2017-11-05T05:35:37.229Z,21.73
2017-11-05T05:38:03.819Z,22.63
2017-11-05T05:40:30.407Z,22.77
2017-11-05T05:42:56.992Z,20.03
2017-11-05T05:45:23.592Z,16.60
2017-11-05T05:47:50.166Z,15.23
2017-11-05T05:50:16.746Z,10.30
2017-11-05T05:52:43.348Z,12.13
2017-11-05T05:55:09.930Z,11.07
2017-11-05T05:57:36.513Z,12.03
2017-11-05T06:00:03.109Z,12.63
2017-11-05T06:02:29.697Z,13.40
2017-11-05T06:04:56.289Z,14.47
2017-11-05T06:07:22.866Z,12.73
2017-11-05T06:09:49.460Z,13.83
2017-11-05T06:12:16.052Z,13.87
2017-11-05T06:14:42.637Z,14.93
2017-11-05T06:17:09.226Z,17.97
2017-11-05T06:19:35.823Z,17.70
2017-11-05T06:22:02.407Z,15.80
2017-11-05T06:24:28.996Z,20.23
2017-11-05T06:26:55.594Z,17.90
2017-11-05T06:29:22.180Z,20.27
2017-11-05T06:31:48.772Z,21.13
2017-11-05T06:34:15.368Z,24.53
2017-11-05T06:36:41.952Z,22.40
2017-11-05T06:39:08.530Z,21.60
2017-11-05T06:41:35.134Z,25.00
2017-11-05T06:44:01.710Z,23.13
2017-11-05T06:46:28.295Z,28.60
2017-11-05T06:48:54.895Z,22.80
2017-11-05T06:51:21.481Z,19.63
2017-11-05T06:53:48.079Z,23.73
2017-11-05T06:56:14.661Z,24.13
2017-11-05T06:58:41.250Z,17.23
2017-11-05T07:01:07.841Z,19.87
2017-11-05T07:03:34.426Z,21.87
2017-11-05T07:06:01.010Z,22.50
2017-11-05T07:08:27.622Z,19.80
2017-11-05T07:10:54.194Z,20.63
2017-11-05T07:13:20.788Z,17.33
2017-11-05T07:15:47.365Z,15.73
2017-11-05T07:18:13.950Z,18.53
2017-11-05T07:20:40.538Z,18.50
2017-11-05T07:23:07.121Z,20.63
2017-11-05T07:25:33.733Z,19.33
2017-11-05T07:28:00.335Z,19.33
2017-11-05T07:30:26.925Z,20.50
2017-11-05T07:32:53.537Z,22.50
2017-11-05T07:35:20.102Z,21.40
2017-11-05T07:37:46.701Z,18.73
2017-11-05T07:40:13.285Z,19.97
2017-11-05T07:42:39.878Z,22.20
2017-11-05T07:45:06.466Z,19.60
2017-11-05T07:47:33.069Z,19.43
2017-11-05T07:49:59.681Z,21.67
2017-11-05T07:52:26.267Z,19.23
2017-11-05T07:54:52.870Z,19.83
2017-11-05T07:57:19.469Z,24.47
2017-11-05T07:59:46.070Z,32.20
2017-11-05T08:02:12.681Z,24.00
2017-11-05T08:04:39.266Z,23.47
2017-11-05T08:07:05.874Z,26.87
2017-11-05T08:09:32.479Z,22.83
2017-11-05T08:11:59.061Z,20.70
2017-11-05T08:14:25.757Z,21.87
2017-11-05T08:16:52.342Z,25.00
2017-11-05T08:19:18.929Z,19.57
2017-11-05T08:21:45.529Z,23.40
2017-11-05T08:24:12.126Z,19.60
2017-11-05T08:26:38.724Z,18.70
2017-11-05T08:29:05.355Z,19.03
2017-11-05T08:31:31.932Z,16.43
2017-11-05T08:33:58.534Z,21.27
2017-11-05T08:36:25.141Z,20.13
2017-11-05T08:38:51.742Z,14.90
2017-11-05T08:41:18.370Z,17.30
2017-11-05T08:43:44.960Z,14.20
2017-11-05T08:46:13.526Z,15.20
2017-11-05T08:48:40.283Z,11.57
2017-11-05T08:51:06.876Z,13.13
2017-11-05T08:53:33.459Z,14.07
2017-11-05T08:56:00.047Z,13.97
2017-11-05T08:58:26.637Z,14.00
2017-11-05T09:03:28.804Z,12.00
2017-11-05T09:05:55.382Z,10.43
2017-11-05T09:08:21.954Z,8.93
2017-11-05T09:10:48.590Z,9.17
2017-11-05T09:13:15.175Z,10.47
2017-11-05T09:15:41.867Z,7.90
2017-11-05T09:18:08.446Z,10.10
2017-11-05T09:20:35.022Z,9.73
2017-11-05T09:23:01.606Z,9.33
2017-11-05T09:25:28.203Z,11.20
2017-11-05T09:27:54.797Z,8.80
2017-11-05T09:30:21.387Z,13.17
2017-11-05T09:32:47.975Z,6.97
2017-11-05T09:35:14.610Z,9.13
2017-11-05T09:37:41.264Z,6.87
2017-11-05T09:40:07.859Z,11.23
2017-11-05T09:42:34.434Z,6.60
2017-11-05T09:45:01.006Z,7.43
2017-11-05T09:47:27.586Z,6.63
2017-11-05T09:49:54.163Z,7.83
2017-11-05T09:52:20.765Z,9.43
2017-11-05T09:54:47.345Z,9.10
2017-11-05T09:57:13.947Z,6.87
2017-11-05T09:59:40.540Z,6.33
2017-11-05T10:02:07.122Z,4.80
2017-11-05T10:04:33.709Z,6.30
2017-11-05T10:07:00.361Z,11.37
2017-11-05T10:09:27.004Z,7.63
2017-11-05T10:11:53.605Z,5.50
2017-11-05T10:14:20.178Z,7.63
2017-11-05T10:16:46.766Z,5.97
2017-11-05T10:19:13.339Z,5.03
2017-11-05T10:21:39.923Z,9.85
2017-11-05T10:24:06.505Z,5.80
2017-11-05T10:26:33.089Z,6.90
2017-11-05T10:28:59.790Z,15.10
2017-11-05T10:31:26.374Z,11.30
2017-11-05T10:33:52.949Z,7.13
2017-11-05T10:36:19.529Z,8.30
2017-11-05T10:38:46.125Z,7.90
2017-11-05T10:41:12.721Z,7.03
2017-11-05T10:43:39.314Z,9.00
2017-11-05T10:46:05.905Z,11.40
2017-11-05T10:48:32.499Z,10.27
2017-11-05T10:50:59.105Z,10.30
2017-11-05T10:53:25.716Z,7.57
2017-11-05T10:55:52.294Z,10.73
2017-11-05T10:58:18.874Z,8.43
2017-11-05T11:00:45.501Z,8.20
2017-11-05T11:03:12.077Z,9.83
2017-11-05T11:05:38.671Z,8.93
2017-11-05T11:08:05.253Z,6.93
2017-11-05T11:10:31.829Z,7.07
2017-11-05T11:12:58.418Z,11.90
2017-11-05T11:15:25.015Z,10.00
2017-11-05T11:17:51.608Z,11.47
2017-11-05T11:20:18.206Z,10.83
2017-11-05T11:22:44.782Z,10.83
2017-11-05T11:25:11.366Z,11.30
2017-11-05T11:27:37.957Z,10.50
2017-11-05T11:30:04.575Z,8.37
2017-11-05T11:32:31.154Z,13.57
2017-11-05T11:34:57.757Z,14.10
2017-11-05T11:37:24.340Z,10.93
2017-11-05T11:39:50.951Z,13.00
2017-11-05T11:42:17.655Z,11.47
2017-11-05T11:44:44.226Z,10.97
2017-11-05T11:47:10.810Z,11.30
2017-11-05T11:49:37.437Z,12.10
2017-11-05T11:52:04.014Z,10.47
2017-11-05T11:54:30.710Z,10.67
2017-11-05T11:56:57.519Z,14.63
2017-11-05T11:59:24.094Z,13.57
2017-11-05T12:01:50.729Z,18.30
2017-11-05T12:04:17.334Z,10.23
2017-11-05T12:06:43.937Z,13.70
2017-11-05T12:09:10.518Z,14.77
2017-11-05T12:11:37.099Z,14.30
2017-11-05T12:14:03.708Z,14.00
2017-11-05T12:16:30.329Z,12.93
2017-11-05T12:18:57.037Z,10.73
2017-11-05T12:21:23.625Z,13.20
2017-11-05T12:23:50.206Z,14.77
2017-11-05T12:26:16.794Z,15.50
2017-11-05T12:28:43.379Z,14.27
2017-11-05T12:31:09.972Z,16.90
2017-11-05T12:33:36.554Z,11.80
2017-11-05T12:36:03.154Z,12.63
2017-11-05T12:38:29.749Z,12.00
2017-11-05T12:40:56.317Z,14.17
2017-11-05T12:43:22.935Z,17.03
2017-11-05T12:45:49.530Z,13.83
2017-11-05T12:48:16.114Z,12.33
2017-11-05T12:50:42.702Z,12.30
2017-11-05T12:53:09.294Z,9.17
2017-11-05T12:55:35.886Z,10.63
2017-11-05T12:58:02.482Z,14.67
2017-11-05T13:00:29.078Z,11.60
2017-11-05T13:02:55.751Z,10.67
2017-11-05T13:05:22.610Z,12.60
2017-11-05T13:07:49.235Z,8.10
2017-11-05T13:10:15.806Z,7.17
2017-11-05T13:12:42.550Z,11.73
2017-11-05T13:15:09.261Z,10.37
2017-11-05T13:17:35.928Z,11.20
2017-11-05T13:20:02.513Z,7.37
2017-11-05T13:22:30.829Z,7.80
2017-11-05T13:24:58.497Z,10.43
2017-11-05T13:27:25.375Z,11.97
2017-11-05T13:29:52.058Z,16.07
2017-11-05T13:32:18.748Z,12.20
2017-11-05T13:34:45.417Z,10.37
2017-11-05T13:37:12.383Z,11.90
2017-11-05T13:39:39.074Z,14.10
2017-11-05T13:42:05.856Z,10.50
2017-11-05T13:44:32.540Z,8.70
2017-11-05T13:46:59.216Z,9.30
2017-11-05T13:49:26.886Z,9.07
2017-11-05T13:51:53.714Z,11.60
2017-11-05T13:54:20.695Z,8.90
2017-11-05T13:56:47.447Z,8.57
2017-11-05T13:59:14.210Z,7.50
2017-11-05T14:01:40.932Z,9.67
2017-11-05T14:04:09.267Z,12.80
2017-11-05T14:06:35.869Z,9.23
2017-11-05T14:09:02.468Z,7.10
2017-11-05T14:11:29.061Z,10.70
2017-11-05T14:13:55.636Z,8.63
2017-11-05T14:16:22.223Z,14.07
2017-11-05T14:18:48.825Z,7.37
2017-11-05T14:21:15.405Z,7.70
2017-11-05T14:23:41.985Z,4.43
2017-11-05T14:26:08.565Z,8.30
2017-11-05T14:28:35.181Z,7.53
2017-11-05T14:31:01.755Z,6.60
2017-11-05T14:33:28.344Z,11.20
2017-11-05T14:35:54.931Z,13.20
2017-11-05T14:38:21.530Z,8.07
2017-11-05T14:40:48.107Z,12.87
2017-11-05T14:43:14.690Z,13.00
2017-11-05T14:45:41.428Z,8.00
2017-11-05T14:48:07.989Z,12.67
2017-11-05T14:50:34.589Z,10.47
2017-11-05T14:53:01.164Z,6.00
2017-11-05T14:55:27.806Z,6.43
2017-11-05T14:57:54.361Z,9.60
2017-11-05T15:00:20.952Z,6.07
2017-11-05T15:02:47.550Z,6.90
2017-11-05T15:05:14.125Z,9.03
2017-11-05T15:07:40.711Z,6.73
2017-11-05T15:10:07.285Z,6.93
2017-11-05T15:12:33.879Z,6.77
2017-11-05T15:15:00.462Z,8.30
2017-11-05T15:17:27.038Z,8.07
2017-11-05T15:19:53.619Z,7.10
2017-11-05T15:22:20.197Z,10.50
2017-11-05T15:24:46.791Z,12.30
2017-11-05T15:27:13.375Z,12.97
2017-11-05T15:29:39.961Z,7.70
2017-11-05T15:32:06.540Z,9.80
2017-11-05T15:34:33.134Z,11.03
2017-11-05T15:36:59.722Z,10.30
2017-11-05T15:39:26.293Z,6.23
2017-11-05T15:41:52.882Z,6.37
2017-11-05T15:44:19.467Z,7.30
2017-11-05T15:46:46.062Z,7.70
2017-11-05T15:49:12.643Z,8.10
2017-11-05T15:51:39.266Z,8.03
2017-11-05T15:54:05.851Z,7.00
2017-11-05T15:56:32.429Z,8.17
2017-11-05T15:58:59.012Z,8.20
2017-11-05T16:01:25.594Z,10.97
2017-11-05T16:03:52.198Z,12.03
2017-11-05T16:06:18.781Z,14.73
2017-11-05T16:08:45.361Z,19.47
2017-11-05T16:11:11.953Z,17.07
2017-11-05T16:13:38.538Z,13.97
2017-11-05T16:16:05.125Z,16.83
2017-11-05T16:18:31.715Z,12.80
2017-11-05T16:20:58.306Z,13.45
2017-11-05T16:23:24.887Z,12.63
2017-11-05T16:25:51.469Z,16.90
2017-11-05T16:28:18.062Z,15.87
2017-11-05T16:30:44.664Z,17.20
2017-11-05T16:33:11.271Z,19.80
2017-11-05T16:35:37.846Z,13.30
2017-11-05T16:38:04.448Z,8.93
2017-11-05T16:40:31.027Z,10.07
2017-11-05T16:42:57.606Z,11.03
2017-11-05T16:45:24.195Z,11.77
2017-11-05T16:47:50.785Z,14.00
2017-11-05T16:50:17.373Z,9.23
2017-11-05T16:52:43.958Z,13.50
2017-11-05T16:55:10.957Z,11.80
2017-11-05T16:57:37.527Z,9.80
2017-11-05T17:00:04.122Z,15.30
2017-11-05T17:02:30.713Z,11.10
2017-11-05T17:04:57.286Z,13.90
2017-11-05T17:07:23.870Z,13.40
2017-11-05T17:09:50.455Z,9.20
2017-11-05T17:12:17.066Z,13.33
2017-11-05T17:14:43.646Z,11.37
2017-11-05T17:17:10.234Z,13.33
2017-11-05T17:19:36.838Z,12.27
2017-11-05T17:22:03.514Z,13.40
2017-11-05T17:24:30.133Z,13.97
2017-11-05T17:26:56.802Z,13.47
2017-11-05T17:29:23.464Z,14.70
2017-11-05T17:31:50.088Z,22.53
2017-11-05T17:34:16.678Z,19.80
2017-11-05T17:36:43.823Z,15.77
2017-11-05T17:39:10.735Z,16.03
2017-11-05T17:41:37.346Z,18.90
2017-11-05T17:44:03.938Z,15.53
2017-11-05T17:46:30.528Z,23.53
2017-11-05T17:48:57.117Z,19.17
2017-11-05T17:51:23.701Z,16.30
2017-11-05T17:53:50.293Z,17.23
2017-11-05T17:56:16.886Z,17.93
2017-11-05T17:58:43.470Z,17.63
2017-11-05T18:01:10.205Z,80.77
2017-11-05T18:03:36.787Z,146.57
2017-11-05T18:06:03.373Z,32.33
2017-11-05T18:08:29.967Z,31.27
2017-11-05T18:10:56.550Z,33.00
2017-11-05T18:13:23.158Z,40.70
2017-11-05T18:15:49.739Z,24.83
2017-11-05T18:18:16.361Z,21.67
2017-11-05T18:20:43.918Z,23.93
2017-11-05T18:23:10.521Z,21.40
2017-11-05T18:25:37.106Z,20.40
2017-11-05T18:28:03.702Z,17.93
2017-11-05T18:30:30.282Z,12.23
2017-11-05T18:32:56.871Z,17.40
2017-11-05T18:35:23.467Z,13.73
2017-11-05T18:37:50.058Z,15.30
2017-11-05T18:40:16.642Z,10.90
2017-11-05T18:42:43.225Z,14.20
2017-11-05T18:45:09.814Z,12.17
2017-11-05T18:47:36.403Z,15.13
2017-11-05T18:50:03.013Z,20.50
2017-11-05T18:52:29.645Z,14.50
2017-11-05T18:54:56.218Z,17.33
2017-11-05T18:57:22.811Z,13.17
2017-11-05T18:59:49.493Z,13.03
2017-11-05T19:02:16.079Z,17.07
2017-11-05T19:04:42.665Z,14.93
2017-11-05T19:07:09.241Z,12.23
2017-11-05T19:09:35.850Z,11.60
2017-11-05T19:12:02.446Z,11.60
2017-11-05T19:14:29.079Z,8.40
2017-11-05T19:16:55.789Z,13.60
2017-11-05T19:19:22.374Z,7.30
2017-11-05T19:21:48.953Z,11.53
2017-11-05T19:24:15.618Z,10.93
2017-11-05T19:26:42.204Z,13.03
2017-11-05T19:29:08.813Z,17.23
2017-11-05T19:31:35.406Z,15.83
2017-11-05T19:34:01.998Z,13.63
2017-11-05T19:36:28.669Z,10.57
2017-11-05T19:38:55.245Z,11.83
2017-11-05T19:41:21.835Z,10.53
2017-11-05T19:43:49.474Z,9.33
2017-11-05T19:46:16.050Z,9.60
2017-11-05T19:48:42.691Z,11.40
2017-11-05T19:51:09.278Z,13.57
2017-11-05T19:53:35.866Z,16.10
2017-11-05T19:56:02.517Z,15.57
2017-11-05T19:58:29.092Z,16.03
2017-11-05T20:00:55.729Z,15.83
2017-11-05T20:03:22.313Z,16.07
2017-11-05T20:05:48.947Z,16.20
2017-11-05T20:08:15.554Z,16.40
2017-11-05T20:10:42.143Z,13.53
2017-11-05T20:13:08.737Z,19.10
2017-11-05T20:15:35.327Z,16.37
2017-11-05T20:18:01.905Z,15.30
2017-11-05T20:20:28.498Z,17.13
2017-11-05T20:22:55.082Z,14.13
2017-11-05T20:25:21.707Z,17.23
2017-11-05T20:27:48.291Z,14.23
2017-11-05T20:30:14.870Z,12.40
2017-11-05T20:32:41.467Z,14.17
2017-11-05T20:35:08.998Z,13.67
2017-11-05T20:37:35.636Z,11.80
2017-11-05T20:40:02.219Z,10.93
2017-11-05T20:42:28.825Z,12.93
2017-11-05T20:44:55.422Z,13.70
2017-11-05T20:47:22.026Z,16.83
2017-11-05T20:49:48.643Z,18.33
2017-11-05T20:52:15.234Z,22.90
2017-11-05T20:54:41.813Z,19.67
2017-11-05T20:57:08.412Z,17.63
2017-11-05T20:59:34.999Z,16.73
2017-11-05T21:02:01.686Z,19.17
2017-11-05T21:04:28.284Z,17.87
2017-11-05T21:06:54.869Z,17.13
2017-11-05T21:09:21.463Z,15.70
2017-11-05T21:11:48.058Z,17.77
2017-11-05T21:14:14.659Z,15.10
2017-11-05T21:16:41.242Z,12.10
2017-11-05T21:19:07.822Z,12.97
2017-11-05T21:21:34.443Z,11.13
2017-11-05T21:24:01.061Z,12.37
2017-11-05T21:26:27.771Z,10.83
2017-11-05T21:28:54.350Z,13.33
2017-11-05T21:31:20.946Z,14.53
2017-11-05T21:33:47.548Z,12.37
2017-11-05T21:36:14.134Z,12.33
2017-11-05T21:38:40.742Z,11.93
2017-11-05T21:41:07.330Z,14.93
2017-11-05T21:43:33.931Z,15.37
2017-11-05T21:46:00.523Z,13.40
2017-11-05T21:48:27.101Z,14.27
2017-11-05T21:50:53.698Z,19.10
2017-11-05T21:53:20.287Z,16.40
2017-11-05T21:55:46.866Z,13.13
2017-11-05T21:58:13.469Z,11.83
2017-11-05T22:00:40.050Z,10.90
2017-11-05T22:03:06.638Z,13.83
2017-11-05T22:05:33.221Z,14.20
2017-11-05T22:07:59.801Z,14.13
2017-11-05T22:10:26.389Z,12.80
2017-11-05T22:12:52.982Z,13.10
2017-11-05T22:15:19.586Z,21.00
2017-11-05T22:17:46.174Z,12.70
2017-11-05T22:20:12.760Z,10.13
2017-11-05T22:22:39.358Z,14.50
2017-11-05T22:25:05.933Z,13.27
2017-11-05T22:27:32.534Z,10.50
2017-11-05T22:29:59.116Z,13.70
2017-11-05T22:32:25.694Z,10.53
2017-11-05T22:34:52.289Z,10.23
2017-11-05T22:37:18.874Z,10.33
2017-11-05T22:39:45.473Z,13.93
2017-11-05T22:42:12.049Z,12.33
2017-11-05T22:44:38.630Z,13.47
2017-11-05T22:47:05.224Z,9.53
2017-11-05T22:49:31.802Z,16.00
2017-11-05T22:51:58.426Z,10.93
2017-11-05T22:54:25.023Z,14.87
2017-11-05T22:56:51.594Z,12.30
2017-11-05T22:59:18.188Z,11.50
2017-11-05T23:01:44.771Z,13.30
2017-11-05T23:04:11.386Z,10.03
2017-11-05T23:06:37.966Z,10.93
2017-11-05T23:09:04.558Z,11.67
2017-11-05T23:11:31.134Z,9.57
2017-11-05T23:13:57.739Z,13.50
2017-11-05T23:16:24.351Z,11.20
2017-11-05T23:18:50.930Z,9.17
2017-11-05T23:21:17.516Z,11.00
2017-11-05T23:23:44.099Z,10.13
2017-11-05T23:26:10.701Z,9.77
2017-11-05T23:28:37.298Z,11.50
2017-11-05T23:31:03.875Z,12.87
2017-11-05T23:33:30.450Z,8.63
2017-11-05T23:35:57.034Z,9.80
2017-11-05T23:38:23.614Z,9.40
2017-11-05T23:40:50.210Z,12.27
2017-11-05T23:43:16.789Z,10.03
2017-11-05T23:45:43.394Z,10.47
2017-11-05T23:48:09.978Z,8.13
2017-11-05T23:50:36.568Z,10.37
2017-11-05T23:53:03.161Z,10.90
2017-11-05T23:55:29.738Z,10.13
2017-11-05T23:57:56.322Z,10.77
